createdAt,value
2018-10-02T00:01:13.002Z,101684.75
2018-10-02T00:03:40.538Z,101684.75
2018-10-02T00:06:08.280Z,101691.30
2018-10-02T00:08:35.851Z,101700.92
2018-10-02T00:11:09.087Z,101703.55
2018-10-02T00:13:42.353Z,101696.11
2018-10-02T00:16:10.011Z,101700.04
2018-10-02T00:18:37.599Z,101683.03
2018-10-02T00:21:05.211Z,101684.33
2018-10-02T00:23:32.895Z,101676.06
2018-10-02T00:26:00.427Z,101680.41
2018-10-02T00:28:28.054Z,101681.72
2018-10-02T00:30:55.643Z,101683.48
2018-10-02T00:33:23.206Z,101679.98
2018-10-02T00:35:50.845Z,101685.65
2018-10-02T00:38:18.456Z,101685.22
2018-10-02T00:40:46.107Z,101675.17
2018-10-02T00:43:13.711Z,101635.47
2018-10-02T00:45:41.276Z,101652.06
2018-10-02T00:48:09.041Z,101659.91
2018-10-02T00:50:36.670Z,101659.03
2018-10-02T00:53:04.313Z,101659.88
2018-10-02T00:55:31.892Z,101670.80
2018-10-02T00:57:59.503Z,101655.52
2018-10-02T01:00:27.099Z,101649.39
2018-10-02T01:02:54.717Z,101648.08
2018-10-02T01:05:22.303Z,101642.00
2018-10-02T01:07:49.907Z,101634.15
2018-10-02T01:10:17.532Z,101632.38
2018-10-02T01:12:45.079Z,101636.34
2018-10-02T01:15:12.656Z,101636.31
2018-10-02T01:17:40.209Z,101632.84
2018-10-02T01:20:08.486Z,101628.91
2018-10-02T01:22:36.069Z,101623.25
2018-10-02T01:25:03.674Z,101613.20
2018-10-02T01:27:31.334Z,101599.23
2018-10-02T01:29:58.932Z,101587.04
2018-10-02T01:32:26.547Z,101596.66
2018-10-02T01:34:54.083Z,101587.08
2018-10-02T01:37:21.699Z,101590.54
2018-10-02T01:39:49.303Z,101591.42
2018-10-02T01:42:16.958Z,101589.66
2018-10-02T01:44:44.542Z,101595.78
2018-10-02T01:47:12.154Z,101589.70
2018-10-02T01:49:39.699Z,101590.13
2018-10-02T01:52:07.312Z,101585.31
2018-10-02T01:54:34.888Z,101577.92
2018-10-02T01:57:02.524Z,101570.06
2018-10-02T01:59:30.074Z,101564.37
2018-10-02T02:01:57.667Z,101567.45
2018-10-02T02:04:25.318Z,101569.61
2018-10-02T02:06:52.905Z,101567.87
2018-10-02T02:09:20.499Z,101556.52
2018-10-02T02:11:48.090Z,101550.42
2018-10-02T02:14:15.696Z,101543.00
2018-10-02T02:16:43.351Z,101539.06
2018-10-02T02:19:11.019Z,101542.11
2018-10-02T02:21:38.619Z,101537.75
2018-10-02T02:24:06.216Z,101535.57
2018-10-02T02:26:33.812Z,101541.69
2018-10-02T02:29:01.426Z,101538.19
2018-10-02T02:31:29.036Z,101544.31
2018-10-02T02:33:56.583Z,101544.31
2018-10-02T02:36:24.234Z,101553.95
2018-10-02T02:38:51.843Z,101554.38
2018-10-02T02:41:19.528Z,101545.67
2018-10-02T02:43:47.159Z,101540.04
2018-10-02T02:46:14.835Z,101542.19
2018-10-02T02:48:47.880Z,101529.09
2018-10-02T02:51:21.648Z,101525.63
2018-10-02T02:53:49.284Z,101526.53
2018-10-02T02:56:16.879Z,101526.95
2018-10-02T02:58:44.447Z,101522.60
2018-10-02T03:01:12.048Z,101523.02
2018-10-02T03:03:39.640Z,101531.30
2018-10-02T03:06:07.276Z,101524.33
2018-10-02T03:08:34.978Z,101523.03
2018-10-02T03:11:02.539Z,101514.28
2018-10-02T03:13:30.159Z,101512.55
2018-10-02T03:15:57.815Z,101505.13
2018-10-02T03:18:25.389Z,101488.59
2018-10-02T03:20:52.943Z,101475.52
2018-10-02T03:23:20.547Z,101472.46
2018-10-02T03:25:48.074Z,101478.58
2018-10-02T03:28:15.743Z,101475.06
2018-10-02T03:30:43.367Z,101480.72
2018-10-02T03:33:10.979Z,101487.31
2018-10-02T03:35:38.556Z,101482.08
2018-10-02T03:38:06.196Z,101482.09
2018-10-02T03:40:33.784Z,101486.91
2018-10-02T03:43:01.437Z,101484.29
2018-10-02T03:45:29.048Z,101478.63
2018-10-02T03:47:56.681Z,101479.48
2018-10-02T03:50:24.282Z,101482.99
2018-10-02T03:52:51.867Z,101473.40
2018-10-02T03:55:19.547Z,101476.02
2018-10-02T03:57:47.156Z,101477.75
2018-10-02T04:00:14.775Z,101469.89
2018-10-02T04:02:42.461Z,101466.86
2018-10-02T04:05:10.064Z,101462.05
2018-10-02T04:07:37.743Z,101469.42
2018-10-02T04:10:05.367Z,101461.14
2018-10-02T04:12:32.965Z,101443.66
2018-10-02T04:15:00.516Z,101429.32
2018-10-02T04:17:28.075Z,101427.96
2018-10-02T04:19:55.675Z,101440.20
2018-10-02T04:22:23.268Z,101455.03
2018-10-02T04:24:50.880Z,101461.16
2018-10-02T04:27:18.497Z,101472.50
2018-10-02T04:29:46.096Z,101458.54
2018-10-02T04:32:13.716Z,101446.34
2018-10-02T04:34:41.266Z,101446.34
2018-10-02T04:37:08.956Z,101446.81
2018-10-02T04:39:36.546Z,101455.93
2018-10-02T04:42:04.221Z,101435.03
2018-10-02T04:44:31.752Z,101438.08
2018-10-02T04:46:59.384Z,101439.38
2018-10-02T04:49:26.998Z,101440.64
2018-10-02T04:51:54.564Z,101427.14
2018-10-02T04:54:22.164Z,101418.45
2018-10-02T04:56:49.723Z,101414.13
2018-10-02T04:59:17.319Z,101422.39
2018-10-02T05:01:44.925Z,101417.63
2018-10-02T05:04:12.525Z,101421.56
2018-10-02T05:06:40.156Z,101423.75
2018-10-02T05:09:09.044Z,101412.40
2018-10-02T05:11:36.770Z,101391.95
2018-10-02T05:14:04.471Z,101397.62
2018-10-02T05:16:32.265Z,101393.29
2018-10-02T05:19:00.722Z,101394.17
2018-10-02T05:21:28.356Z,101385.48
2018-10-02T05:23:56.053Z,101389.83
2018-10-02T05:26:24.400Z,101385.44
2018-10-02T05:28:52.780Z,101372.35
2018-10-02T05:31:21.346Z,101381.92
2018-10-02T05:33:50.065Z,101373.19
2018-10-02T05:36:18.589Z,101377.16
2018-10-02T05:38:47.109Z,101375.44
2018-10-02T05:41:15.925Z,101379.79
2018-10-02T05:43:44.387Z,101383.28
2018-10-02T05:46:13.035Z,101374.98
2018-10-02T05:48:41.525Z,101375.85
2018-10-02T05:51:09.983Z,101380.20
2018-10-02T05:53:38.658Z,101368.02
2018-10-02T05:56:07.087Z,101371.06
2018-10-02T05:58:36.924Z,101370.63
2018-10-02T06:01:05.621Z,101361.05
2018-10-02T06:03:34.053Z,101353.64
2018-10-02T06:06:02.453Z,101350.17
2018-10-02T06:08:31.056Z,101352.33
2018-10-02T06:10:59.835Z,101347.09
2018-10-02T06:13:29.009Z,101346.67
2018-10-02T06:15:58.756Z,101351.02
2018-10-02T06:18:27.314Z,101339.25
2018-10-02T06:20:58.682Z,101333.17
2018-10-02T06:23:27.188Z,101327.94
2018-10-02T06:25:55.763Z,101331.39
2018-10-02T06:28:24.107Z,101317.89
2018-10-02T06:30:52.686Z,101320.03
2018-10-02T06:33:21.280Z,101316.09
2018-10-02T06:35:49.909Z,101325.26
2018-10-02T06:38:18.632Z,101327.05
2018-10-02T06:40:47.578Z,101326.17
2018-10-02T06:43:16.319Z,101325.34
2018-10-02T06:45:44.766Z,101317.09
2018-10-02T06:48:13.430Z,101309.71
2018-10-02T06:50:41.107Z,101308.43
2018-10-02T06:53:08.708Z,101308.86
2018-10-02T06:55:36.239Z,101299.27
2018-10-02T06:58:03.907Z,101281.44
2018-10-02T07:00:31.623Z,101276.16
2018-10-02T07:02:59.243Z,101269.19
2018-10-02T07:05:26.839Z,101263.96
2018-10-02T07:07:54.406Z,101255.62
2018-10-02T07:10:22.130Z,101250.80
2018-10-02T07:12:49.756Z,101255.61
2018-10-02T07:30:25.378Z,101209.95
2018-10-02T07:32:53.114Z,101201.70
2018-10-02T07:35:20.812Z,101189.94
2018-10-02T07:37:48.511Z,101191.67
2018-10-02T07:43:19.548Z,101173.41
2018-10-02T07:45:47.241Z,101172.06
2018-10-02T07:48:14.959Z,101162.50
2018-10-02T07:50:42.663Z,101153.35
2018-10-02T07:53:10.289Z,101161.65
2018-10-02T07:55:38.007Z,101144.20
2018-10-02T07:58:05.784Z,101146.88
2018-10-02T08:00:33.416Z,101142.55
2018-10-02T08:03:01.121Z,101136.88
2018-10-02T08:05:28.770Z,101140.85
2018-10-02T08:07:56.419Z,101142.59
2018-10-02T08:10:24.064Z,101139.09
2018-10-02T08:12:51.703Z,101140.45
2018-10-02T08:15:19.401Z,101139.98
2018-10-02T08:17:47.050Z,101122.58
2018-10-02T08:20:14.708Z,101132.61
2018-10-02T08:22:42.344Z,101122.99
2018-10-02T08:25:10.000Z,101117.34
2018-10-02T08:27:37.700Z,101115.56
2018-10-02T08:30:05.974Z,101102.95
2018-10-02T08:32:33.597Z,101102.95
2018-10-02T08:35:01.213Z,101086.81
2018-10-02T08:37:28.864Z,101073.73
2018-10-02T08:39:56.832Z,101079.42
2018-10-02T08:42:24.539Z,101080.73
2018-10-02T08:44:52.175Z,101072.48
2018-10-02T08:47:19.862Z,101068.11
2018-10-02T08:49:47.574Z,101065.49
2018-10-02T08:52:15.389Z,101066.84
2018-10-02T08:54:42.961Z,101057.70
2018-10-02T08:57:10.670Z,101065.09
2018-10-02T08:59:38.293Z,101052.91
2018-10-02T09:02:06.068Z,101053.38
2018-10-02T09:04:33.839Z,101038.53
2018-10-02T09:07:01.583Z,101033.73
2018-10-02T09:09:29.164Z,101030.69
2018-10-02T09:11:56.943Z,101032.42
2018-10-02T09:14:24.651Z,101033.78
2018-10-02T09:16:53.185Z,101022.45
2018-10-02T09:19:20.893Z,101013.73
2018-10-02T09:21:48.506Z,101017.63
2018-10-02T09:24:16.190Z,101016.73
2018-10-02T09:26:43.863Z,101012.39
2018-10-02T09:29:11.517Z,101012.39
2018-10-02T09:31:44.649Z,100982.30
2018-10-02T09:34:18.063Z,100983.15
2018-10-02T09:38:57.074Z,100967.45
2018-10-02T09:41:30.560Z,100976.16
2018-10-02T09:44:00.254Z,100971.78
2018-10-02T09:46:28.148Z,100970.48
2018-10-02T09:48:55.872Z,100961.30
2018-10-02T09:51:23.824Z,100953.45
2018-10-02T09:53:51.490Z,100955.23
2018-10-02T09:56:19.103Z,100953.04
2018-10-02T09:58:46.847Z,100946.09
2018-10-02T10:01:19.948Z,100952.56
2018-10-02T10:03:47.563Z,100935.58
2018-10-02T10:06:15.228Z,100934.33
2018-10-02T10:08:42.934Z,100935.64
2018-10-02T10:11:10.735Z,100923.39
2018-10-02T10:13:38.350Z,100915.97
2018-10-02T10:16:06.120Z,100905.48
2018-10-02T10:18:33.699Z,100905.03
2018-10-02T10:21:01.318Z,100901.04
2018-10-02T10:23:28.955Z,100898.88
2018-10-02T10:25:56.596Z,100899.31
2018-10-02T10:28:24.282Z,100888.89
2018-10-02T10:30:51.861Z,100895.02
2018-10-02T10:33:20.064Z,100890.67
2018-10-02T10:35:47.805Z,100879.80
2018-10-02T10:38:15.455Z,100871.04
2018-10-02T10:40:43.258Z,100871.47
2018-10-02T10:43:10.772Z,100873.70
2018-10-02T10:45:38.561Z,100864.13
2018-10-02T10:48:06.230Z,100865.44
2018-10-02T10:50:33.894Z,100862.84
2018-10-02T10:53:01.574Z,100852.38
2018-10-02T10:55:30.940Z,100855.39
2018-10-02T10:57:58.533Z,100854.91
2018-10-02T11:00:26.208Z,100851.84
2018-10-02T11:02:53.795Z,100857.08
2018-10-02T11:05:21.373Z,100850.14
2018-10-02T11:07:49.011Z,100850.55
2018-10-02T11:10:17.917Z,100857.50
2018-10-02T11:12:45.767Z,100852.25
2018-10-02T11:15:13.529Z,100866.20
2018-10-02T11:17:41.254Z,100851.81
2018-10-02T11:20:09.660Z,100842.19
2018-10-02T11:22:37.331Z,100832.61
2018-10-02T11:25:04.986Z,100846.09
2018-10-02T11:27:32.639Z,100855.19
2018-10-02T11:30:00.518Z,100854.70
2018-10-02T11:32:28.072Z,100845.98
2018-10-02T11:34:55.719Z,100837.71
2018-10-02T11:37:23.829Z,100841.22
2018-10-02T11:39:51.567Z,100840.73
2018-10-02T11:42:19.272Z,100835.51
2018-10-02T11:44:46.977Z,100829.36
2018-10-02T11:47:14.577Z,100831.45
2018-10-02T11:49:42.249Z,100821.80
2018-10-02T11:52:09.868Z,100812.58
2018-10-02T11:54:38.608Z,100815.15
2018-10-02T11:57:07.257Z,100810.73
2018-10-02T11:59:35.735Z,100808.08
2018-10-02T12:02:04.232Z,100804.52
2018-10-02T12:04:33.485Z,100803.65
2018-10-02T12:07:01.096Z,100815.52
2018-10-02T12:09:28.701Z,100830.84
2018-10-02T12:11:56.372Z,100822.22
2018-10-02T12:14:24.176Z,100831.80
2018-10-02T12:16:51.664Z,100828.34
2018-10-02T12:19:19.333Z,100827.91
2018-10-02T12:21:46.928Z,100837.50
2018-10-02T12:24:14.518Z,100836.63
2018-10-02T12:26:42.152Z,100836.63
2018-10-02T12:29:09.775Z,100825.34
2018-10-02T12:31:37.387Z,100834.53
2018-10-02T12:34:05.030Z,100829.75
2018-10-02T12:36:32.603Z,100822.77
2018-10-02T12:39:00.254Z,100822.26
2018-10-02T12:41:27.875Z,100819.19
2018-10-02T12:43:55.592Z,100805.65
2018-10-02T12:46:23.276Z,100816.13
2018-10-02T12:48:50.929Z,100811.38
2018-10-02T12:51:18.745Z,100814.00
2018-10-02T12:53:46.352Z,100822.77
2018-10-02T12:56:13.972Z,100825.81
2018-10-02T12:58:41.560Z,100820.58
2018-10-02T13:01:09.512Z,100830.22
2018-10-02T13:03:37.183Z,100822.77
2018-10-02T13:06:04.805Z,100822.30
2018-10-02T13:08:32.521Z,100817.95
2018-10-02T13:11:00.101Z,100819.69
2018-10-02T13:13:27.688Z,100823.20
2018-10-02T13:15:55.342Z,100824.09
2018-10-02T13:18:22.904Z,100840.70
2018-10-02T13:20:50.476Z,100862.95
2018-10-02T13:23:18.060Z,100855.08
2018-10-02T13:25:45.699Z,100865.06
2018-10-02T13:28:13.306Z,100859.79
2018-10-02T13:30:40.967Z,100853.64
2018-10-02T13:33:08.651Z,100847.06
2018-10-02T13:35:36.278Z,100847.03
2018-10-02T13:38:03.950Z,100850.50
2018-10-02T13:40:31.621Z,100850.07
2018-10-02T13:42:59.215Z,100844.80
2018-10-02T13:45:26.944Z,100844.75
2018-10-02T13:47:54.606Z,100841.64
2018-10-02T13:50:22.253Z,100845.44
2018-10-02T13:52:49.937Z,100848.43
2018-10-02T13:55:17.526Z,100846.73
2018-10-02T13:57:45.133Z,100854.60
2018-10-02T14:00:12.794Z,100857.70
2018-10-02T14:02:40.433Z,100857.63
2018-10-02T14:05:08.045Z,100856.77
2018-10-02T14:07:35.615Z,100865.48
2018-10-02T14:10:03.204Z,100865.55
2018-10-02T14:12:30.860Z,100877.27
2018-10-02T14:14:58.580Z,100872.95
2018-10-02T14:17:26.142Z,100875.16
2018-10-02T14:19:53.773Z,100874.75
2018-10-02T14:22:21.645Z,100883.50
2018-10-02T14:24:49.276Z,100886.52
2018-10-02T14:27:16.858Z,100884.82
2018-10-02T14:29:44.485Z,100891.75
2018-10-02T14:32:12.062Z,100892.58
2018-10-02T14:34:39.622Z,100889.00
2018-10-02T14:37:07.276Z,100884.08
2018-10-02T14:39:34.879Z,100883.02
2018-10-02T14:42:02.480Z,100883.86
2018-10-02T14:44:30.131Z,100892.13
2018-10-02T14:46:57.832Z,100901.97
2018-10-02T14:49:25.589Z,100898.59
2018-10-02T14:51:53.168Z,100886.41
2018-10-02T14:54:20.728Z,100898.62
2018-10-02T14:56:48.382Z,100904.36
2018-10-02T14:59:16.034Z,100903.99
2018-10-02T15:01:43.678Z,100916.71
2018-10-02T15:04:11.248Z,100915.83
2018-10-02T15:06:38.844Z,100918.84
2018-10-02T15:09:07.396Z,100916.18
2018-10-02T15:11:35.059Z,100917.03
2018-10-02T15:14:02.634Z,100908.27
2018-10-02T15:16:30.272Z,100911.27
2018-10-02T15:18:57.883Z,100908.17
2018-10-02T15:21:25.598Z,100913.36
2018-10-02T15:23:53.747Z,100915.86
2018-10-02T15:26:21.829Z,100906.81
2018-10-02T15:28:49.465Z,100916.37
2018-10-02T15:31:17.204Z,100917.61
2018-10-02T15:33:44.840Z,100926.86
2018-10-02T15:36:12.423Z,100926.52
2018-10-02T15:38:40.051Z,100933.16
2018-10-02T15:41:07.618Z,100925.34
2018-10-02T15:43:35.242Z,100929.48
2018-10-02T15:46:02.873Z,100922.84
2018-10-02T15:48:30.617Z,100916.09
2018-10-02T15:50:58.553Z,100929.27
2018-10-02T15:53:26.119Z,100931.98
2018-10-02T15:55:53.742Z,100924.59
2018-10-02T15:58:21.320Z,100928.09
2018-10-02T16:00:49.100Z,100931.19
2018-10-02T16:03:16.741Z,100933.84
2018-10-02T16:05:44.426Z,100936.08
2018-10-02T16:08:12.092Z,100944.84
2018-10-02T16:10:39.764Z,100938.73
2018-10-02T16:13:07.525Z,100950.09
2018-10-02T16:15:35.111Z,100938.73
2018-10-02T16:18:02.909Z,100959.67
2018-10-02T16:20:30.480Z,100947.89
2018-10-02T16:22:58.068Z,100951.39
2018-10-02T16:25:25.716Z,100960.13
2018-10-02T16:27:53.375Z,100973.25
2018-10-02T16:30:20.953Z,100961.92
2018-10-02T16:32:48.605Z,100964.12
2018-10-02T16:35:16.216Z,100968.07
2018-10-02T16:37:44.069Z,100978.12
2018-10-02T16:40:11.652Z,100965.95
2018-10-02T16:42:39.257Z,100963.42
2018-10-02T16:45:07.210Z,100966.45
2018-10-02T16:47:34.836Z,100966.91
2018-10-02T16:50:02.471Z,100964.35
2018-10-02T16:52:30.105Z,100964.39
2018-10-02T16:54:57.729Z,100977.47
2018-10-02T16:57:25.371Z,100974.87
2018-10-02T16:59:52.962Z,100985.33
2018-10-02T17:02:20.559Z,100972.27
2018-10-02T17:04:48.189Z,100992.77
2018-10-02T17:07:15.823Z,100993.25
2018-10-02T17:09:43.471Z,100980.21
2018-10-02T17:12:11.085Z,100984.55
2018-10-02T17:14:38.668Z,100990.20
2018-10-02T17:17:06.309Z,100987.18
2018-10-02T17:19:33.949Z,100989.80
2018-10-02T17:22:01.613Z,100999.41
2018-10-02T17:24:29.209Z,100993.32
2018-10-02T17:26:57.095Z,100993.33
2018-10-02T17:29:24.711Z,101002.05
2018-10-02T17:31:52.376Z,100996.83
2018-10-02T17:34:19.983Z,101006.87
2018-10-02T17:36:47.604Z,101007.30
2018-10-02T17:39:15.235Z,100993.83
2018-10-02T17:41:42.969Z,100999.94
2018-10-02T17:44:10.523Z,100998.17
2018-10-02T17:46:38.253Z,101009.93
2018-10-02T17:49:05.993Z,101011.25
2018-10-02T17:51:33.553Z,101011.72
2018-10-02T17:54:01.320Z,101014.76
2018-10-02T17:56:28.903Z,101007.41
2018-10-02T17:58:56.490Z,101017.39
2018-10-02T18:01:24.149Z,101015.23
2018-10-02T18:03:51.712Z,101010.45
2018-10-02T18:06:19.324Z,101014.38
2018-10-02T18:08:46.985Z,101017.45
2018-10-02T18:11:14.572Z,101012.64
2018-10-02T18:13:42.237Z,101015.27
2018-10-02T18:16:09.885Z,101007.00
2018-10-02T18:18:37.436Z,101010.05
2018-10-02T18:21:05.148Z,101011.82
2018-10-02T18:23:32.790Z,101020.09
2018-10-02T18:26:00.498Z,101032.75
2018-10-02T18:28:28.131Z,101047.11
2018-10-02T18:30:55.843Z,101045.36
2018-10-02T18:33:23.484Z,101045.82
2018-10-02T18:35:51.039Z,101052.38
2018-10-02T18:38:18.662Z,101042.36
2018-10-02T18:40:46.326Z,101040.20
2018-10-02T18:43:14.014Z,101039.73
2018-10-02T18:45:41.649Z,101058.04
2018-10-02T18:48:09.311Z,101068.51
2018-10-02T18:50:36.913Z,101072.89
2018-10-02T18:53:04.512Z,101047.19
2018-10-02T18:55:32.167Z,101048.48
2018-10-02T18:57:59.737Z,101037.19
2018-10-02T19:00:27.403Z,101043.72
2018-10-02T19:02:55.044Z,101042.41
2018-10-02T19:05:22.685Z,101036.33
2018-10-02T19:07:50.301Z,101032.89
2018-10-02T19:10:17.934Z,101023.73
2018-10-02T19:12:45.582Z,101020.71
2018-10-02T19:15:13.224Z,101026.80
2018-10-02T19:17:40.839Z,101033.37
2018-10-02T19:20:14.101Z,101033.39
2018-10-02T19:22:41.777Z,101056.90
2018-10-02T19:25:14.844Z,101051.67
2018-10-02T19:27:42.467Z,101055.61
2018-10-02T19:30:15.668Z,101056.94
2018-10-02T19:32:43.293Z,101053.91
2018-10-02T19:35:10.909Z,101050.41
2018-10-02T19:37:45.102Z,101045.20
2018-10-02T19:40:12.769Z,101055.66
2018-10-02T19:42:40.424Z,101053.92
2018-10-02T19:45:13.640Z,101051.73
2018-10-02T19:47:41.275Z,101049.12
2018-10-02T19:50:08.827Z,101054.34
2018-10-02T19:52:36.543Z,101054.81
2018-10-02T19:55:04.124Z,101055.23
2018-10-02T19:57:31.792Z,101058.73
2018-10-02T19:59:59.509Z,101056.12
2018-10-02T20:02:27.137Z,101051.74
2018-10-02T20:04:54.725Z,101056.97
2018-10-02T20:07:22.437Z,101055.70
2018-10-02T20:09:50.035Z,101052.64
2018-10-02T20:12:17.681Z,101045.67
2018-10-02T20:14:45.362Z,101053.52
2018-10-02T20:17:13.012Z,101079.23
2018-10-02T20:19:40.579Z,101087.07
2018-10-02T20:22:08.843Z,101087.97
2018-10-02T20:24:36.511Z,101091.44
2018-10-02T20:27:04.183Z,101087.98
2018-10-02T20:29:31.823Z,101096.26
2018-10-02T20:31:59.484Z,101087.98
2018-10-02T20:34:27.095Z,101096.73
2018-10-02T20:36:54.735Z,101089.72
2018-10-02T20:39:22.343Z,101085.39
2018-10-02T20:41:50.036Z,101082.36
2018-10-02T20:44:17.629Z,101073.23
2018-10-02T20:46:45.300Z,101079.31
2018-10-02T20:49:12.935Z,101069.76
2018-10-02T20:51:40.569Z,101073.67
2018-10-02T20:54:08.211Z,101050.59
2018-10-02T20:56:35.839Z,101064.98
2018-10-02T20:59:03.475Z,101055.84
2018-10-02T21:01:31.121Z,101058.45
2018-10-02T21:03:58.769Z,101051.50
2018-10-02T21:06:26.440Z,101049.78
2018-10-02T21:08:54.137Z,101047.16
2018-10-02T21:11:21.736Z,101054.11
2018-10-02T21:13:49.378Z,101053.70
2018-10-02T21:16:17.197Z,101052.39
2018-10-02T21:18:44.797Z,101058.03
2018-10-02T21:21:12.464Z,101049.35
2018-10-02T21:23:40.106Z,101051.97
2018-10-02T21:26:07.740Z,101056.31
2018-10-02T21:28:35.364Z,101058.03
2018-10-02T21:31:03.010Z,101051.09
2018-10-02T21:33:30.616Z,101058.03
2018-10-02T21:35:58.250Z,101068.06
2018-10-02T21:38:25.868Z,101100.72
2018-10-02T21:40:53.488Z,101114.67
2018-10-02T21:43:21.087Z,101113.37
2018-10-02T21:45:48.793Z,101115.98
2018-10-02T21:48:16.424Z,101108.57
2018-10-02T21:50:44.017Z,101125.13
2018-10-02T21:53:11.680Z,101104.23
2018-10-02T21:55:39.244Z,101102.05
2018-10-02T21:58:06.840Z,101096.41
2018-10-02T22:00:34.440Z,101100.79
2018-10-02T22:03:02.315Z,101101.64
2018-10-02T22:05:29.956Z,101090.77
2018-10-02T22:07:57.564Z,101093.38
2018-10-02T22:10:25.236Z,101084.67
2018-10-02T22:12:52.964Z,101085.12
2018-10-02T22:15:20.671Z,101092.50
2018-10-02T22:17:48.300Z,101081.63
2018-10-02T22:20:15.945Z,101082.52
2018-10-02T22:22:43.533Z,101079.45
2018-10-02T22:25:11.154Z,101081.63
2018-10-02T22:27:38.743Z,101081.22
2018-10-02T22:30:08.680Z,101104.73
2018-10-02T22:32:36.456Z,101094.28
2018-10-02T22:35:04.073Z,101101.23
2018-10-02T22:37:31.728Z,101094.28
2018-10-02T22:39:59.353Z,101098.63
2018-10-02T22:42:26.968Z,101090.84
2018-10-02T22:44:54.535Z,101093.45
2018-10-02T22:47:22.263Z,101088.64
2018-10-02T22:49:49.877Z,101096.47
2018-10-02T22:52:17.437Z,101089.48
2018-10-02T22:54:45.040Z,101093.86
2018-10-02T22:57:12.647Z,101097.31
2018-10-02T22:59:40.335Z,101082.95
2018-10-02T23:02:07.993Z,101108.66
2018-10-02T23:04:35.643Z,101105.20
2018-10-02T23:07:03.273Z,101083.86
2018-10-02T23:09:30.905Z,101079.95
2018-10-02T23:11:58.558Z,101082.55
2018-10-02T23:14:26.169Z,101086.45
2018-10-02T23:16:53.800Z,101100.41
2018-10-02T23:19:21.387Z,101101.71
2018-10-02T23:21:48.993Z,101092.58
2018-10-02T23:24:16.594Z,101097.39
2018-10-02T23:26:44.201Z,101093.48
2018-10-02T23:29:11.836Z,101109.14
2018-10-02T23:31:39.472Z,101111.75
2018-10-02T23:34:07.129Z,101110.88
2018-10-02T23:36:34.729Z,101112.64
2018-10-02T23:39:02.671Z,101127.85
2018-10-02T23:41:30.292Z,101118.71
2018-10-02T23:43:57.885Z,101127.85
2018-10-02T23:46:25.463Z,101112.18
2018-10-02T23:48:53.157Z,101113.53
2018-10-02T23:51:20.743Z,101115.67
2018-10-02T23:53:48.355Z,101116.56
2018-10-02T23:56:15.955Z,101113.06
2018-10-02T23:58:43.588Z,101127.02
